createdAt,value
2023-05-04T00:06:07.591Z,1.2
2023-05-04T00:12:27.640Z,1.2
2023-05-04T00:18:50.509Z,1.6
2023-05-04T00:25:10.567Z,1.6
2023-05-04T00:31:33.681Z,1.2
2023-05-04T00:37:53.601Z,1.2
2023-05-04T00:44:16.611Z,1.3
2023-05-04T00:50:36.626Z,1.3
2023-05-04T00:56:59.533Z,1.1
2023-05-04T01:03:19.613Z,1.1
2023-05-04T01:09:42.506Z,1
2023-05-04T01:16:02.696Z,1
2023-05-04T01:22:25.567Z,1.8
2023-05-04T01:28:45.555Z,1.8
2023-05-04T01:35:08.662Z,2.3
2023-05-04T01:41:28.643Z,2.3
2023-05-04T01:47:51.602Z,1.6
2023-05-04T01:54:11.881Z,1.6
2023-05-04T02:00:34.640Z,1.9
2023-05-04T02:06:54.620Z,1.9
2023-05-04T02:13:17.744Z,2.3
2023-05-04T02:19:37.608Z,2.3
2023-05-04T02:26:00.501Z,2.2
2023-05-04T02:32:20.717Z,2.2
2023-05-04T02:38:43.643Z,2.5
2023-05-04T02:45:03.573Z,2.5
2023-05-04T02:51:26.495Z,1.2
2023-05-04T02:57:46.703Z,1.2
2023-05-04T03:04:09.569Z,1.9
2023-05-04T03:10:29.690Z,1.9
2023-05-04T03:34:01.691Z,3.1
2023-05-04T03:40:24.498Z,3.1
2023-05-04T03:46:44.494Z,3.1
2023-05-04T03:53:07.501Z,1.3
2023-05-04T03:59:27.536Z,1.3
2023-05-04T04:05:50.520Z,0.3
2023-05-04T04:12:10.690Z,0.3
2023-05-04T04:18:33.701Z,1.2
2023-05-04T04:24:53.530Z,1.2
2023-05-04T04:31:16.606Z,1.6
2023-05-04T04:37:36.504Z,1.6
2023-05-04T04:43:59.589Z,1.5
2023-05-04T04:50:19.925Z,1.5
2023-05-04T04:56:42.504Z,2
2023-05-04T05:03:02.578Z,2
2023-05-04T05:09:25.661Z,2
2023-05-04T05:15:45.557Z,2
2023-05-04T05:22:08.579Z,1.9
2023-05-04T05:28:28.518Z,1.9
2023-05-04T05:34:51.677Z,1.2
2023-05-04T05:41:11.861Z,1.2
2023-05-04T05:47:34.633Z,1.1
2023-05-04T05:53:54.632Z,1.1
2023-05-04T06:00:17.623Z,1.4
2023-05-04T06:06:37.655Z,1.4
2023-05-04T06:13:00.671Z,3
2023-05-04T06:19:20.529Z,3
2023-05-04T06:25:43.648Z,0.9
2023-05-04T06:32:03.555Z,0.9
2023-05-04T06:38:26.572Z,1.3
2023-05-04T06:44:46.530Z,1.3
2023-05-04T06:51:09.548Z,2.4
2023-05-04T06:57:29.661Z,2.4
2023-05-04T07:03:52.785Z,1.8
2023-05-04T07:10:13.374Z,1.8
2023-05-04T07:16:36.623Z,2.5
2023-05-04T07:22:56.613Z,2.5
2023-05-04T07:29:19.733Z,2.7
2023-05-04T07:35:39.540Z,2.7
2023-05-04T07:42:02.569Z,2.6
2023-05-04T07:48:24.058Z,2.6
2023-05-04T07:54:45.540Z,2.8
2023-05-04T08:01:05.661Z,2.8
2023-05-04T08:07:28.556Z,2.3
2023-05-04T08:13:48.537Z,2.3
2023-05-04T08:20:11.518Z,2.3
2023-05-04T08:26:31.546Z,2.3
2023-05-04T08:50:59.996Z,2.1
2023-05-04T08:57:19.612Z,2.1
2023-05-04T09:03:42.691Z,1.8
2023-05-04T09:10:02.578Z,1.8
2023-05-04T09:16:25.516Z,2
2023-05-04T09:22:45.548Z,2
2023-05-04T09:29:08.544Z,2.9
2023-05-04T09:35:33.027Z,2.9
2023-05-04T09:41:51.525Z,2.3
2023-05-04T09:48:11.747Z,2.3
2023-05-04T09:54:34.781Z,1.8
2023-05-04T10:00:54.540Z,1.8
2023-05-04T10:07:17.862Z,1.1
2023-05-04T10:13:37.645Z,1.1
2023-05-04T10:20:00.550Z,1.4
2023-05-04T10:26:20.691Z,1.4
2023-05-04T10:32:43.573Z,1.6
2023-05-04T10:39:03.533Z,1.6
2023-05-04T10:45:26.536Z,1
2023-05-04T10:51:49.513Z,1
2023-05-04T10:58:09.488Z,2.5
2023-05-04T11:04:29.700Z,2.5
2023-05-04T11:10:52.507Z,3
2023-05-04T11:17:26.502Z,3
2023-05-04T11:23:35.505Z,2
2023-05-04T11:29:55.570Z,2
2023-05-04T11:36:18.505Z,1.5
2023-05-04T11:42:38.557Z,1.5
2023-05-04T11:49:01.498Z,2
2023-05-04T11:55:21.490Z,2
2023-05-04T12:01:44.811Z,1.4
2023-05-04T12:08:04.605Z,1.4
2023-05-04T12:14:27.556Z,3
2023-05-04T12:20:47.599Z,3
2023-05-04T12:27:10.513Z,1.8
2023-05-04T12:33:30.546Z,1.8
2023-05-04T12:39:53.501Z,1.1
2023-05-04T12:46:13.648Z,1.1
2023-05-04T12:52:36.578Z,2.3
2023-05-04T12:58:56.653Z,2.3
2023-05-04T13:05:19.511Z,2
2023-05-04T13:11:39.752Z,2
2023-05-04T13:18:02.693Z,1.5
2023-05-04T13:24:22.540Z,1.5
2023-05-04T13:30:45.559Z,1.4
2023-05-04T13:37:05.550Z,1.4
2023-05-04T13:43:28.542Z,1.5
2023-05-04T13:49:48.540Z,1.5
2023-05-04T13:56:11.533Z,2
2023-05-04T14:12:19.542Z,1.6
2023-05-04T14:18:42.036Z,2.3
2023-05-04T14:25:01.488Z,2.3
2023-05-04T14:31:24.679Z,2.3
2023-05-04T14:37:44.551Z,2.3
2023-05-04T14:44:07.503Z,1.5
2023-05-04T14:50:27.613Z,1.5
2023-05-04T14:56:50.487Z,1.4
2023-05-04T15:03:10.575Z,1.4
2023-05-04T15:09:33.518Z,1.2
2023-05-04T15:15:53.552Z,1.2
2023-05-04T15:22:16.522Z,1.3
2023-05-04T15:28:36.513Z,1.3
2023-05-04T15:35:05.031Z,1.2
2023-05-04T15:41:19.483Z,1.2
2023-05-04T15:47:42.574Z,1.8
2023-05-04T15:54:02.540Z,1.8
2023-05-04T16:00:25.493Z,1.4
2023-05-04T16:06:45.589Z,1.4
2023-05-04T16:13:10.592Z,1
2023-05-04T16:19:29.132Z,1
2023-05-04T16:25:52.532Z,1.3
2023-05-04T16:32:12.488Z,1.3
2023-05-04T16:38:35.537Z,0.9
2023-05-04T16:44:55.517Z,0.9
2023-05-04T16:51:18.518Z,1
2023-05-04T16:57:38.553Z,1
2023-05-04T17:04:01.733Z,1
2023-05-04T17:10:21.512Z,1
2023-05-04T17:16:44.639Z,1.1
2023-05-04T17:23:04.576Z,1.1
2023-05-04T17:29:27.610Z,1.6
2023-05-04T17:35:47.499Z,1.6
2023-05-04T17:42:11.117Z,2.3
2023-05-04T17:48:30.507Z,2.3
2023-05-04T17:54:53.508Z,0.2
2023-05-04T18:01:13.693Z,0.2
2023-05-04T18:07:36.609Z,0.6
2023-05-04T18:13:56.614Z,0.6
2023-05-04T18:20:19.777Z,1.6
2023-05-04T18:26:39.539Z,1.6
2023-05-04T18:33:02.583Z,0.2
2023-05-04T18:39:22.709Z,0.2
2023-05-04T18:45:45.557Z,1.3
2023-05-04T18:52:05.591Z,1.3
2023-05-04T18:58:28.563Z,2.5
2023-05-04T19:04:48.656Z,2.5
2023-05-04T19:11:11.502Z,2.9
2023-05-04T19:17:31.555Z,2.9
2023-05-04T19:23:54.645Z,2.3
2023-05-04T19:30:14.470Z,2.3
2023-05-04T19:36:37.637Z,2.2
2023-05-04T19:53:38.117Z,2.9
2023-05-04T20:00:00.040Z,3.9
2023-05-04T20:06:19.493Z,3.9
2023-05-04T20:12:42.597Z,3.9
2023-05-04T20:19:03.857Z,3.9
2023-05-04T20:25:25.509Z,2.2
2023-05-04T20:31:45.589Z,2.2
2023-05-04T20:38:08.479Z,2.7
2023-05-04T20:44:28.516Z,2.7
2023-05-04T20:50:53.139Z,2.7
2023-05-04T20:57:11.546Z,2.7
2023-05-04T21:03:34.539Z,3.4
2023-05-04T21:09:54.480Z,3.4
2023-05-04T21:16:17.555Z,1.1
2023-05-04T21:22:37.464Z,1.1
2023-05-04T21:29:00.566Z,1.8
2023-05-04T21:35:20.460Z,1.8
2023-05-04T21:41:44.657Z,2.3
2023-05-04T21:48:04.561Z,2.3
2023-05-04T21:54:27.473Z,2.2
2023-05-04T22:00:47.498Z,2.2
2023-05-04T22:23:46.497Z,4.5
2023-05-04T22:30:06.848Z,4.5
2023-05-04T22:36:29.510Z,4.5
2023-05-04T22:42:49.648Z,4.5
2023-05-04T22:49:12.546Z,3.3
2023-05-04T22:55:32.572Z,3.3
2023-05-04T23:01:55.535Z,2.5
2023-05-04T23:08:15.525Z,2.5
2023-05-04T23:14:38.488Z,4.8
2023-05-04T23:20:58.579Z,4.8
2023-05-04T23:27:21.496Z,2.8
2023-05-04T23:33:41.608Z,2.8
2023-05-04T23:40:04.564Z,3.2
2023-05-04T23:46:24.564Z,3.2
2023-05-04T23:52:47.536Z,2.9
2023-05-04T23:59:07.550Z,2.9
